Time;durP1;ratioP1;P1;durP2;ratioP2;P2;SDS_P1;SDS_P2;PMS_P1;PMS_P2;Temp;Humidity;BMP_temperature;BMP_pressure;BME280_temperature;BME280_humidity;BME280_pressure;Samples;Min_cycle;Max_cycle;Signal;HPM_P1;HPM_P2
2022/07/07 00:00:38;;;;;;;4.50;4.20;;;21.30;91.40;;;;;;6248948;28;20236;-61
2022/07/07 00:03:41;;;;;;;4.77;4.47;;;21.30;91.80;;;;;;6249403;28;20553;-62
2022/07/07 00:06:44;;;;;;;5.27;4.87;;;21.20;91.80;;;;;;6249503;28;20228;-62
2022/07/07 00:09:49;;;;;;;5.73;5.23;;;21.20;92.30;;;;;;6249375;28;20232;-61
2022/07/07 00:12:52;;;;;;;4.67;4.37;;;21.20;92.30;;;;;;6248740;28;20233;-63
2022/07/07 00:15:56;;;;;;;4.93;4.63;;;21.10;92.30;;;;;;6249540;28;20232;-62
2022/07/07 00:19:01;;;;;;;4.70;4.30;;;21.10;92.40;;;;;;6250396;28;20236;-62
2022/07/07 00:22:04;;;;;;;4.37;4.07;;;21.00;92.40;;;;;;6252482;28;20241;-62
2022/07/07 00:25:09;;;;;;;4.97;4.67;;;20.90;92.40;;;;;;6253918;28;20252;-62
2022/07/07 00:28:13;;;;;;;4.97;4.57;;;20.90;92.60;;;;;;6253326;28;20243;-63
2022/07/07 00:31:16;;;;;;;4.70;4.40;;;20.90;92.90;;;;;;6253204;28;20233;-63
2022/07/07 00:34:19;;;;;;;5.20;4.80;;;20.80;92.90;;;;;;6253046;28;20256;-63
2022/07/07 00:37:23;;;;;;;5.73;5.23;;;20.70;93.00;;;;;;6252879;28;20228;-63
2022/07/07 00:40:28;;;;;;;4.43;4.10;;;20.70;93.20;;;;;;6252862;28;20557;-62
2022/07/07 00:43:36;;;;;;;5.10;4.70;;;20.70;93.40;;;;;;6252759;28;20231;-62
2022/07/07 00:46:44;;;;;;;4.63;4.33;;;20.70;93.60;;;;;;6253477;28;20213;-63
2022/07/07 00:49:48;;;;;;;4.20;4.00;;;20.60;93.60;;;;;;6228139;28;20259;-63
2022/07/07 00:52:51;;;;;;;5.10;4.70;;;20.50;93.70;;;;;;6228786;28;20229;-62
2022/07/07 00:55:56;;;;;;;4.70;4.40;;;20.40;93.90;;;;;;6230261;28;20201;-62
2022/07/07 00:59:06;;;;;;;4.80;4.40;;;20.40;94.00;;;;;;6252700;28;20235;-62
2022/07/07 01:02:09;;;;;;;4.90;4.60;;;20.30;94.20;;;;;;6252759;28;20565;-63
2022/07/07 01:05:12;;;;;;;5.00;4.50;;;20.30;94.30;;;;;;6252968;28;20228;-62
2022/07/07 01:08:16;;;;;;;4.83;4.43;;;20.30;94.50;;;;;;6252763;28;20242;-62
2022/07/07 01:11:21;;;;;;;4.77;4.47;;;20.20;94.50;;;;;;6252527;28;20232;-62
2022/07/07 01:14:25;;;;;;;4.80;4.50;;;20.20;94.80;;;;;;6252689;28;20255;-62
2022/07/07 01:17:28;;;;;;;5.40;5.00;;;20.10;95.00;;;;;;6252075;28;20605;-62
2022/07/07 01:20:32;;;;;;;5.23;4.73;;;20.00;95.30;;;;;;6252181;28;20243;-62
2022/07/07 01:23:36;;;;;;;4.57;4.27;;;20.00;95.40;;;;;;6252143;28;20228;-62
2022/07/07 01:26:40;;;;;;;4.70;4.40;;;19.90;95.50;;;;;;6252418;28;20226;-62
2022/07/07 01:29:44;;;;;;;4.60;4.20;;;19.90;95.60;;;;;;6251603;28;20681;-62
2022/07/07 01:32:48;;;;;;;5.67;4.57;;;19.90;95.80;;;;;;6251693;28;20247;-62
2022/07/07 01:35:51;;;;;;;4.90;4.60;;;19.90;95.90;;;;;;6251903;28;20520;-61
2022/07/07 01:38:56;;;;;;;5.63;5.23;;;19.80;96.00;;;;;;6251887;28;20244;-61
2022/07/07 01:41:59;;;;;;;4.70;4.40;;;19.80;96.20;;;;;;6252146;28;20242;-61
2022/07/07 01:45:02;;;;;;;5.07;4.77;;;19.80;96.20;;;;;;6251920;28;20228;-61
2022/07/07 01:48:06;;;;;;;5.60;5.20;;;19.80;96.40;;;;;;6251899;28;20228;-61
2022/07/07 01:51:09;;;;;;;5.30;4.90;;;19.80;96.50;;;;;;6247512;28;20236;-62
2022/07/07 01:54:13;;;;;;;4.73;4.43;;;19.90;96.60;;;;;;6251622;28;20237;-61
2022/07/07 01:57:17;;;;;;;4.50;4.20;;;19.90;96.50;;;;;;6251093;28;20251;-61
2022/07/07 02:00:20;;;;;;;4.93;4.40;;;19.80;96.40;;;;;;6251409;28;20236;-61
2022/07/07 02:03:23;;;;;;;4.90;4.40;;;19.70;96.80;;;;;;6251227;28;20232;-61
2022/07/07 02:06:27;;;;;;;5.00;4.60;;;19.60;97.10;;;;;;6251417;28;20276;-60
2022/07/07 02:09:31;;;;;;;4.80;4.40;;;19.50;97.30;;;;;;6250988;28;20260;-61
2022/07/07 02:12:35;;;;;;;4.80;4.50;;;19.40;97.90;;;;;;6251353;28;20246;-61
2022/07/07 02:15:38;;;;;;;5.00;4.70;;;19.40;98.20;;;;;;6250748;28;20254;-61
2022/07/07 02:18:42;;;;;;;6.57;5.00;;;19.30;98.40;;;;;;6250965;28;20243;-61
2022/07/07 02:21:45;;;;;;;5.57;4.50;;;19.40;98.30;;;;;;6251627;28;20225;-62
2022/07/07 02:24:50;;;;;;;5.40;4.97;;;19.50;98.10;;;;;;6250863;28;20233;-61
2022/07/07 02:27:54;;;;;;;5.00;4.60;;;19.50;98.10;;;;;;6250248;28;20686;-61
2022/07/07 02:30:59;;;;;;;5.27;4.87;;;19.50;98.10;;;;;;6250772;28;20688;-61
2022/07/07 02:34:02;;;;;;;5.10;4.70;;;19.50;98.10;;;;;;6250583;28;20233;-61
2022/07/07 02:37:05;;;;;;;5.27;4.87;;;19.50;98.30;;;;;;6250379;28;20229;-61
2022/07/07 02:40:11;;;;;;;5.20;4.80;;;19.60;98.40;;;;;;6249942;28;20258;-61
2022/07/07 02:43:15;;;;;;;5.13;4.73;;;19.50;98.30;;;;;;6249652;28;20224;-61
2022/07/07 02:46:18;;;;;;;5.77;5.33;;;19.60;98.40;;;;;;6250588;28;20761;-62
2022/07/07 02:49:21;;;;;;;5.13;4.83;;;19.60;98.40;;;;;;6250085;28;20240;-62
2022/07/07 02:52:24;;;;;;;6.33;4.87;;;19.60;98.40;;;;;;6250449;28;20232;-62
2022/07/07 02:55:30;;;;;;;5.67;5.13;;;19.60;98.70;;;;;;6250237;28;20659;-62
2022/07/07 02:58:33;;;;;;;4.90;4.50;;;19.60;98.40;;;;;;6245172;28;20232;-63
2022/07/07 03:01:36;;;;;;;7.57;4.87;;;19.60;98.50;;;;;;6250039;28;20240;-62
2022/07/07 03:04:39;;;;;;;7.83;5.20;;;19.60;98.40;;;;;;6249935;28;20231;-62
2022/07/07 03:07:42;;;;;;;5.30;5.00;;;19.50;98.40;;;;;;6249681;28;20301;-62
2022/07/07 03:10:47;;;;;;;5.07;4.67;;;19.50;98.60;;;;;;6249482;28;20677;-62
2022/07/07 03:13:50;;;;;;;5.37;4.97;;;19.40;98.80;;;;;;6249583;28;20228;-62
2022/07/07 03:16:53;;;;;;;4.63;4.23;;;19.40;98.90;;;;;;6250788;28;20208;-62
2022/07/07 03:19:56;;;;;;;6.13;5.63;;;19.40;99.10;;;;;;6249746;28;20224;-62
2022/07/07 03:22:59;;;;;;;5.10;4.70;;;19.40;99.30;;;;;;6250455;28;20200;-62
2022/07/07 03:26:04;;;;;;;4.90;4.60;;;19.30;99.30;;;;;;6249805;28;20247;-62
2022/07/07 03:29:07;;;;;;;4.80;4.50;;;19.30;99.30;;;;;;6249573;28;20235;-62
2022/07/07 03:32:10;;;;;;;5.67;5.27;;;19.30;99.30;;;;;;6249518;28;20236;-62
2022/07/07 03:35:14;;;;;;;5.00;4.60;;;19.30;99.30;;;;;;6249081;28;20232;-62
2022/07/07 03:38:17;;;;;;;5.93;4.80;;;19.40;99.30;;;;;;6249579;28;20232;-62
2022/07/07 03:41:21;;;;;;;5.47;5.07;;;19.40;99.20;;;;;;6249243;28;20692;-62
2022/07/07 03:44:25;;;;;;;5.37;4.87;;;19.40;99.10;;;;;;6250088;28;20237;-62
2022/07/07 03:47:28;;;;;;;5.40;4.90;;;19.40;99.10;;;;;;6249880;28;20243;-62
2022/07/07 03:50:31;;;;;;;5.60;5.20;;;19.50;99.30;;;;;;6249562;28;20243;-62
2022/07/07 03:53:34;;;;;;;5.57;5.07;;;19.50;99.20;;;;;;6249737;28;20678;-62
2022/07/07 03:56:39;;;;;;;5.70;5.30;;;19.60;99.60;;;;;;6253931;28;20318;-62
2022/07/07 03:59:42;;;;;;;6.03;5.63;;;19.50;99.30;;;;;;6253929;28;20244;-62
2022/07/07 04:02:46;;;;;;;7.20;4.90;;;19.60;99.40;;;;;;6253981;28;20231;-62
2022/07/07 04:05:49;;;;;;;6.80;5.40;;;19.60;99.50;;;;;;6254151;28;20239;-62
2022/07/07 04:08:52;;;;;;;5.27;4.87;;;19.60;99.50;;;;;;6253623;28;20319;-62
2022/07/07 04:11:56;;;;;;;5.57;5.17;;;19.70;99.60;;;;;;6254126;28;20345;-62
2022/07/07 04:14:59;;;;;;;5.03;4.73;;;19.70;99.50;;;;;;6253474;28;20547;-62
2022/07/07 04:18:03;;;;;;;8.30;5.37;;;19.80;99.40;;;;;;6254043;28;20232;-61
2022/07/07 04:21:06;;;;;;;6.63;5.97;;;19.80;99.60;;;;;;6253767;28;20239;-61
2022/07/07 04:24:09;;;;;;;6.63;6.03;;;19.80;99.50;;;;;;6254045;28;20224;-61
2022/07/07 04:27:14;;;;;;;5.37;5.07;;;19.90;99.40;;;;;;6253306;28;20577;-61
2022/07/07 04:30:17;;;;;;;6.20;5.50;;;20.00;99.10;;;;;;6253574;28;20236;-62
2022/07/07 04:33:20;;;;;;;10.73;4.97;;;19.90;98.60;;;;;;6253558;28;20239;-63
2022/07/07 04:36:25;;;;;;;5.63;5.07;;;20.00;98.60;;;;;;6253509;28;20237;-63
2022/07/07 04:39:28;;;;;;;6.63;5.40;;;20.00;98.40;;;;;;6253128;28;20255;-62
2022/07/07 04:42:32;;;;;;;6.13;5.73;;;20.10;98.40;;;;;;6253033;28;20236;-62
2022/07/07 04:45:36;;;;;;;6.47;5.97;;;20.10;98.20;;;;;;6253011;28;20666;-62
2022/07/07 04:48:39;;;;;;;6.03;5.47;;;20.20;98.20;;;;;;6252917;28;20246;-63
2022/07/07 04:51:42;;;;;;;5.47;5.07;;;20.20;98.10;;;;;;6253175;28;20561;-63
2022/07/07 04:54:45;;;;;;;6.27;5.67;;;20.30;98.10;;;;;;6252814;28;20524;-64
2022/07/07 04:57:50;;;;;;;4.87;4.40;;;20.40;98.20;;;;;;6252943;28;20224;-63
2022/07/07 05:00:53;;;;;;;5.80;5.27;;;20.40;98.00;;;;;;6252788;28;20224;-64
2022/07/07 05:04:03;;;;;;;6.13;5.63;;;20.50;97.80;;;;;;6248495;28;20232;-63
2022/07/07 05:07:06;;;;;;;6.73;6.23;;;20.60;98.00;;;;;;6251657;28;20232;-64
2022/07/07 05:10:10;;;;;;;6.20;5.60;;;20.70;97.60;;;;;;6252487;28;20243;-63
2022/07/07 05:13:15;;;;;;;5.93;5.33;;;20.70;97.40;;;;;;6252454;28;20302;-64
2022/07/07 05:16:18;;;;;;;6.33;5.93;;;20.80;97.50;;;;;;6252355;28;20239;-63
2022/07/07 05:19:21;;;;;;;5.17;4.87;;;20.90;97.40;;;;;;6252269;28;20232;-62
2022/07/07 05:22:24;;;;;;;5.70;5.20;;;20.90;97.30;;;;;;6252343;28;20332;-61
2022/07/07 05:25:28;;;;;;;6.40;5.90;;;20.90;97.20;;;;;;6252001;28;20224;-61
2022/07/07 05:28:33;;;;;;;5.97;5.47;;;21.00;97.10;;;;;;6251706;28;20247;-61
2022/07/07 05:31:36;;;;;;;7.63;6.60;;;21.10;97.10;;;;;;6252024;28;20233;-63
2022/07/07 05:34:39;;;;;;;7.53;6.07;;;21.20;96.90;;;;;;6251451;28;20221;-62
2022/07/07 05:37:42;;;;;;;7.33;6.53;;;21.30;96.70;;;;;;6251709;28;20236;-64
2022/07/07 05:40:46;;;;;;;6.60;6.00;;;21.40;96.70;;;;;;6251107;28;20256;-64
2022/07/07 05:43:50;;;;;;;6.03;5.53;;;21.60;96.60;;;;;;6251594;28;20204;-65
2022/07/07 05:46:53;;;;;;;7.20;6.53;;;21.70;96.40;;;;;;6252190;28;20214;-64
2022/07/07 05:49:56;;;;;;;6.20;5.70;;;21.90;95.90;;;;;;6251505;28;20236;-64
2022/07/07 05:52:59;;;;;;;6.70;6.10;;;22.00;95.80;;;;;;6250700;28;20219;-64
2022/07/07 05:56:03;;;;;;;5.70;5.30;;;22.20;95.60;;;;;;6251425;28;20236;-65
2022/07/07 05:59:07;;;;;;;6.40;5.80;;;22.20;95.30;;;;;;6251428;28;20650;-62
2022/07/07 06:02:10;;;;;;;5.93;5.40;;;22.40;95.20;;;;;;6251482;28;20237;-62
2022/07/07 06:05:14;;;;;;;6.97;6.13;;;22.50;95.00;;;;;;6252470;28;20302;-63
2022/07/07 06:08:18;;;;;;;7.80;5.67;;;22.60;95.10;;;;;;6251567;28;20250;-62
2022/07/07 06:11:21;;;;;;;7.83;6.83;;;22.80;94.50;;;;;;6251267;28;20313;-62
2022/07/07 06:14:29;;;;;;;6.63;6.03;;;22.90;94.80;;;;;;6250947;28;20236;-62
2022/07/07 06:17:32;;;;;;;7.03;6.07;;;23.00;94.10;;;;;;6250598;28;20232;-62
2022/07/07 06:20:55;;;;;;;6.10;5.60;;;23.30;93.70;;;;;;6250943;28;20228;-62
2022/07/07 06:23:58;;;;;;;6.43;5.83;;;23.50;92.90;;;;;;6250761;28;20220;-62
2022/07/07 06:27:01;;;;;;;6.10;5.50;;;23.90;92.60;;;;;;6250118;28;20616;-65
2022/07/07 06:30:07;;;;;;;7.47;6.60;;;24.10;91.70;;;;;;6250891;28;20239;-62
2022/07/07 06:33:10;;;;;;;8.20;6.10;;;24.30;91.10;;;;;;6250977;28;20228;-63
2022/07/07 06:36:14;;;;;;;7.63;6.30;;;24.60;90.90;;;;;;6250190;28;20646;-65
2022/07/07 06:39:17;;;;;;;7.53;5.77;;;24.90;90.20;;;;;;6250454;28;20247;-64
2022/07/07 06:42:20;;;;;;;7.07;6.37;;;26.00;87.80;;;;;;6250775;28;20562;-64
2022/07/07 06:45:25;;;;;;;6.80;6.10;;;26.80;83.50;;;;;;6250607;28;20223;-64
2022/07/07 06:48:28;;;;;;;6.60;5.40;;;27.60;80.30;;;;;;6250458;28;20573;-64
2022/07/07 06:51:31;;;;;;;5.70;5.30;;;28.40;77.60;;;;;;6250223;28;20311;-64
2022/07/07 06:54:34;;;;;;;7.50;5.17;;;29.20;73.60;;;;;;6250368;28;20238;-64
2022/07/07 06:57:37;;;;;;;5.47;5.07;;;29.90;69.00;;;;;;6250345;28;20669;-64
2022/07/07 07:00:42;;;;;;;67.13;19.83;;;30.40;66.60;;;;;;6250056;28;20242;-64
2022/07/07 07:03:45;;;;;;;6.55;5.22;;;31.30;63.20;;;;;;6250553;28;20231;-64
2022/07/07 07:06:49;;;;;;;5.07;4.68;;;32.00;57.80;;;;;;6250008;28;20231;-64
2022/07/07 07:09:52;;;;;;;4.25;3.95;;;31.80;57.70;;;;;;6250021;28;20231;-64
2022/07/07 07:12:55;;;;;;;5.93;5.43;;;31.90;56.10;;;;;;6241119;28;20228;-64
2022/07/07 07:16:00;;;;;;;5.88;5.35;;;31.20;56.80;;;;;;6250005;28;20228;-64
2022/07/07 07:19:03;;;;;;;6.18;4.95;;;29.90;58.30;;;;;;6249919;28;20258;-64
2022/07/07 07:22:06;;;;;;;6.15;4.88;;;30.40;59.10;;;;;;6250275;28;20223;-65
2022/07/07 07:25:10;;;;;;;4.97;4.57;;;31.60;56.60;;;;;;6249679;28;20682;-65
2022/07/07 07:28:13;;;;;;;4.70;4.28;;;32.30;54.70;;;;;;6249232;28;20236;-64
2022/07/07 07:31:17;;;;;;;4.72;4.32;;;33.50;52.50;;;;;;6253609;28;20228;-64
2022/07/07 07:34:21;;;;;;;6.05;4.03;;;34.60;50.00;;;;;;6254672;28;20235;-64
2022/07/07 07:37:24;;;;;;;4.22;3.90;;;35.00;47.30;;;;;;6254988;28;20503;-64
2022/07/07 07:40:27;;;;;;;5.45;5.05;;;35.40;45.70;;;;;;6254533;28;20239;-64
2022/07/07 07:43:30;;;;;;;5.80;3.67;;;34.70;47.00;;;;;;6254603;28;20232;-64
2022/07/07 07:46:41;;;;;;;4.75;4.35;;;33.30;48.90;;;;;;6254565;28;20261;-64
2022/07/07 07:49:44;;;;;;;4.45;4.10;;;34.30;48.10;;;;;;6230122;28;20229;-64
2022/07/07 07:52:49;;;;;;;4.22;3.90;;;34.30;47.20;;;;;;6229592;28;20650;-64
2022/07/07 07:55:53;;;;;;;3.85;3.65;;;34.70;46.70;;;;;;6229629;28;20669;-63
2022/07/07 07:58:56;;;;;;;4.38;3.97;;;33.70;46.80;;;;;;6230058;28;20252;-63
2022/07/07 08:02:01;;;;;;;4.72;4.43;;;31.80;49.10;;;;;;6231634;28;20215;-62
2022/07/07 08:05:04;;;;;;;4.45;4.15;;;30.80;51.40;;;;;;6230232;28;20233;-63
2022/07/07 08:08:07;;;;;;;4.93;4.63;;;30.30;51.90;;;;;;6229310;28;20366;-64
2022/07/07 08:11:10;;;;;;;4.93;4.47;;;29.90;53.20;;;;;;6229328;28;20575;-64
2022/07/07 08:14:14;;;;;;;5.65;5.25;;;30.20;53.20;;;;;;6224802;28;20235;-64
2022/07/07 08:17:19;;;;;;;7.47;4.57;;;30.00;53.60;;;;;;6229607;28;20244;-64
2022/07/07 08:20:22;;;;;;;4.28;3.97;;;30.20;54.20;;;;;;6229704;28;20239;-64
2022/07/07 08:23:25;;;;;;;5.13;4.80;;;29.90;54.20;;;;;;6229346;28;20228;-64
2022/07/07 08:26:29;;;;;;;5.47;5.07;;;29.70;54.00;;;;;;6230614;28;20307;-64
2022/07/07 08:29:33;;;;;;;4.30;4.00;;;29.40;56.00;;;;;;6230334;28;20687;-63
2022/07/07 08:32:37;;;;;;;6.63;4.37;;;29.30;57.00;;;;;;6230987;28;20244;-63
2022/07/07 08:35:41;;;;;;;5.30;4.90;;;29.20;57.10;;;;;;6228920;28;20237;-63
2022/07/07 08:38:44;;;;;;;5.10;4.67;;;29.10;56.70;;;;;;6228310;28;20240;-63
2022/07/07 08:41:47;;;;;;;5.07;4.73;;;29.20;56.40;;;;;;6227535;28;20232;-63
2022/07/07 08:44:50;;;;;;;4.83;4.53;;;29.20;56.10;;;;;;6228217;28;20716;-63
2022/07/07 08:47:55;;;;;;;21.97;9.37;;;29.30;56.70;;;;;;6228689;28;20239;-63
2022/07/07 08:50:59;;;;;;;103.70;23.63;;;29.40;56.50;;;;;;6228027;28;20685;-64
2022/07/07 08:54:03;;;;;;;32.27;10.60;;;29.20;56.90;;;;;;6238786;28;20231;-64
2022/07/07 08:57:08;;;;;;;5.37;4.97;;;29.60;55.80;;;;;;6252641;28;20232;-63
2022/07/07 09:00:12;;;;;;;5.22;4.82;;;29.70;55.20;;;;;;6253216;28;20740;-63
2022/07/07 09:03:17;;;;;;;5.95;5.45;;;30.00;55.40;;;;;;6251491;28;20227;-63
2022/07/07 09:06:20;;;;;;;4.75;4.50;;;29.80;56.00;;;;;;6251182;28;20227;-65
2022/07/07 09:09:40;;;;;;;6.30;4.75;;;30.10;56.50;;;;;;6251205;28;20231;-65
2022/07/07 09:12:43;;;;;;;4.93;4.50;;;30.30;55.80;;;;;;6251294;28;20232;-65
2022/07/07 09:15:46;;;;;;;4.55;4.25;;;30.70;55.20;;;;;;6250974;28;20243;-65
2022/07/07 09:18:51;;;;;;;4.80;4.50;;;30.70;55.40;;;;;;6251721;28;20544;-65
2022/07/07 09:21:54;;;;;;;4.65;4.35;;;30.60;55.60;;;;;;6243387;28;20235;-65
2022/07/07 09:24:57;;;;;;;5.50;5.20;;;30.30;55.80;;;;;;6252143;28;20238;-65
2022/07/07 09:28:03;;;;;;;5.63;5.18;;;30.00;55.80;;;;;;6252016;28;20223;-65
2022/07/07 09:31:06;;;;;;;10.73;6.88;;;30.60;55.80;;;;;;6252038;28;20228;-65
2022/07/07 09:34:14;;;;;;;43.33;13.93;;;30.90;55.20;;;;;;6252224;28;20232;-65
2022/07/07 09:40:50;;;;;;;5.53;5.03;;;30.50;56.20;;;;;;6251331;28;20240;-65
2022/07/07 09:43:54;;;;;;;5.05;4.47;;;31.00;55.60;;;;;;6226992;28;20630;-63
2022/07/07 09:47:09;;;;;;;5.13;4.82;;;31.30;53.70;;;;;;6227328;28;20205;-63
2022/07/07 09:50:15;;;;;;;4.88;4.57;;;31.60;53.10;;;;;;6230735;28;20242;-63
2022/07/07 09:53:18;;;;;;;5.00;4.60;;;31.60;52.30;;;;;;6251838;28;20239;-63
2022/07/07 09:56:23;;;;;;;5.20;4.63;;;31.10;53.50;;;;;;6251179;28;20572;-63
2022/07/07 09:59:27;;;;;;;5.03;4.72;;;30.50;54.40;;;;;;6253982;28;20247;-63
2022/07/07 10:02:30;;;;;;;5.55;5.05;;;30.10;55.50;;;;;;6254726;28;20783;-63
2022/07/07 10:05:35;;;;;;;6.10;5.57;;;30.00;55.80;;;;;;6251445;28;20235;-63
2022/07/07 10:08:42;;;;;;;5.93;5.53;;;30.00;56.00;;;;;;6250969;28;20235;-63
2022/07/07 10:11:48;;;;;;;5.03;4.63;;;29.90;56.40;;;;;;6251195;28;20232;-63
2022/07/07 10:14:54;;;;;;;5.00;4.70;;;30.50;55.50;;;;;;6251046;28;20231;-63
2022/07/07 10:17:57;;;;;;;4.85;4.55;;;30.60;54.80;;;;;;6251112;28;20572;-64
2022/07/07 10:21:03;;;;;;;5.03;4.53;;;30.70;53.80;;;;;;6250800;28;20238;-63
2022/07/07 10:24:07;;;;;;;5.10;4.70;;;30.60;53.70;;;;;;6242013;28;20569;-63
2022/07/07 10:27:15;;;;;;;6.30;5.60;;;30.20;54.40;;;;;;6250783;28;20231;-63
2022/07/07 10:30:30;;;;;;;6.22;5.65;;;29.90;55.40;;;;;;6250433;28;20228;-63
2022/07/07 10:33:35;;;;;;;5.93;5.33;;;29.70;55.50;;;;;;6250231;28;20311;-63
2022/07/07 10:37:05;;;;;;;4.97;4.65;;;30.00;56.20;;;;;;6248719;28;20362;-63
2022/07/07 10:40:12;;;;;;;4.83;3.87;;;30.10;52.90;;;;;;6246537;28;20597;-63
2022/07/07 10:43:24;;;;;;;4.00;3.73;;;29.60;53.10;;;;;;6249861;28;20239;-63
2022/07/07 10:46:28;;;;;;;5.07;3.90;;;29.10;53.70;;;;;;6249547;28;20692;-63
2022/07/07 10:49:39;;;;;;;11.03;4.53;;;28.60;55.80;;;;;;6249850;28;20240;-63
2022/07/07 10:52:53;;;;;;;4.63;4.23;;;28.20;58.40;;;;;;6249730;28;20219;-63
2022/07/07 10:56:16;;;;;;;6.17;4.80;;;27.70;62.00;;;;;;6226198;28;20801;-63
2022/07/07 10:59:20;;;;;;;5.23;4.73;;;26.90;65.80;;;;;;6225686;28;20243;-63
2022/07/07 11:02:30;;;;;;;6.40;4.93;;;26.30;69.80;;;;;;6231274;28;20232;-63
2022/07/07 11:05:35;;;;;;;4.70;3.90;;;25.90;75.50;;;;;;6243667;28;20232;-63
2022/07/07 11:08:40;;;;;;;5.40;4.90;;;25.50;75.50;;;;;;6225312;28;20238;-63
2022/07/07 11:11:43;;;;;;;4.97;4.47;;;25.10;78.70;;;;;;6225067;28;20228;-63
2022/07/07 11:14:46;;;;;;;4.80;4.50;;;24.60;81.20;;;;;;6224968;28;20247;-63
2022/07/07 11:18:07;;;;;;;5.27;4.77;;;24.00;76.40;;;;;;6229597;28;20228;-63
2022/07/07 11:21:11;;;;;;;4.23;3.93;;;24.00;78.40;;;;;;6249102;28;20337;-63
2022/07/07 11:24:21;;;;;;;4.70;4.30;;;23.80;79.30;;;;;;6236781;28;20233;-65
2022/07/07 11:27:29;;;;;;;4.30;3.83;;;23.80;77.50;;;;;;6232914;28;20228;-63
2022/07/07 11:30:33;;;;;;;3.87;3.57;;;23.80;76.40;;;;;;6234957;28;20240;-63
2022/07/07 11:33:38;;;;;;;5.10;4.00;;;23.80;74.00;;;;;;6240456;28;20315;-62
2022/07/07 11:36:41;;;;;;;3.50;3.23;;;23.80;75.00;;;;;;6233339;28;20240;-62
2022/07/07 11:39:46;;;;;;;3.83;3.60;;;23.80;75.90;;;;;;6224021;28;20613;-65
2022/07/07 11:42:50;;;;;;;3.70;3.50;;;23.70;77.60;;;;;;6224535;28;20229;-64
2022/07/07 11:45:54;;;;;;;4.47;4.00;;;23.60;79.40;;;;;;6225158;28;20686;-64
2022/07/07 11:48:58;;;;;;;3.73;3.53;;;23.40;80.40;;;;;;6242345;28;20287;-64
2022/07/07 11:52:01;;;;;;;4.77;4.33;;;23.30;83.20;;;;;;6249147;28;20239;-64
2022/07/07 11:55:06;;;;;;;4.27;3.97;;;23.20;89.80;;;;;;6249193;28;20247;-64
2022/07/07 11:58:10;;;;;;;3.63;3.37;;;23.20;90.30;;;;;;6250554;28;20229;-64
2022/07/07 12:01:13;;;;;;;4.70;4.30;;;23.20;89.60;;;;;;6251909;28;20228;-64
2022/07/07 12:04:20;;;;;;;4.50;3.90;;;23.20;90.50;;;;;;6249430;28;20243;-64
2022/07/07 12:07:24;;;;;;;5.80;4.00;;;23.20;91.30;;;;;;6248587;28;20243;-64
2022/07/07 12:10:30;;;;;;;5.20;4.70;;;23.10;91.70;;;;;;6248949;28;20237;-64
2022/07/07 12:13:33;;;;;;;5.67;5.27;;;23.00;92.60;;;;;;6248179;28;20560;-64
2022/07/07 12:16:44;;;;;;;7.40;6.53;;;22.70;95.30;;;;;;6219052;28;20229;-64
2022/07/07 12:19:48;;;;;;;6.70;6.00;;;22.50;97.50;;;;;;6226545;28;20236;-65
2022/07/07 12:22:53;;;;;;;7.63;6.93;;;22.30;99.30;;;;;;6214438;28;20205;-64
2022/07/07 12:26:09;;;;;;;8.03;7.33;;;22.10;99.90;;;;;;6214612;28;20225;-64
2022/07/07 12:29:12;;;;;;;7.20;6.60;;;21.90;99.90;;;;;;6237380;28;20257;-64
2022/07/07 12:32:23;;;;;;;7.63;7.13;;;21.70;99.90;;;;;;6211836;28;20244;-64
2022/07/07 12:35:32;;;;;;;8.27;7.60;;;21.60;99.90;;;;;;6218309;28;20251;-64
2022/07/07 12:38:37;;;;;;;7.07;6.50;;;21.40;99.90;;;;;;6213053;28;20243;-64
2022/07/07 12:41:42;;;;;;;7.67;6.83;;;21.30;99.90;;;;;;6220174;28;20307;-64
2022/07/07 12:44:45;;;;;;;6.90;6.43;;;21.30;99.90;;;;;;6226813;28;20226;-64
2022/07/07 12:48:17;;;;;;;6.47;5.97;;;21.30;99.90;;;;;;6225207;28;20336;-64
2022/07/07 12:51:25;;;;;;;6.50;6.00;;;21.20;99.90;;;;;;6216501;28;20225;-64
2022/07/07 12:54:31;;;;;;;6.90;6.30;;;21.20;99.90;;;;;;6212049;28;20239;-64
2022/07/07 12:57:35;;;;;;;6.80;6.30;;;21.20;99.90;;;;;;6213115;28;20680;-64
2022/07/07 13:00:39;;;;;;;6.47;5.97;;;21.30;99.90;;;;;;6235131;28;20241;-63
2022/07/07 13:03:42;;;;;;;6.10;5.63;;;21.30;99.90;;;;;;6227556;28;20298;-63
2022/07/07 13:06:45;;;;;;;6.77;6.27;;;21.20;99.90;;;;;;6211279;28;20585;-64
2022/07/07 13:09:49;;;;;;;7.30;6.70;;;21.30;99.90;;;;;;6211266;28;20364;-63
2022/07/07 13:12:54;;;;;;;6.83;6.23;;;21.30;99.90;;;;;;6202834;28;20232;-63
2022/07/07 13:15:57;;;;;;;7.27;6.67;;;21.30;99.90;;;;;;6220872;28;20225;-64
2022/07/07 13:19:00;;;;;;;6.80;6.33;;;21.30;99.90;;;;;;6209340;28;20253;-64
2022/07/07 13:22:05;;;;;;;5.77;5.37;;;21.40;99.90;;;;;;6202843;28;20230;-65
2022/07/07 13:25:10;;;;;;;10.30;5.93;;;21.60;99.90;;;;;;6202883;28;20583;-64
2022/07/07 13:28:14;;;;;;;7.30;6.70;;;21.70;99.90;;;;;;6201733;28;20304;-63
2022/07/07 13:31:18;;;;;;;7.43;6.83;;;21.90;99.90;;;;;;6223186;28;20375;-63
2022/07/07 13:34:21;;;;;;;7.00;6.50;;;22.10;99.90;;;;;;6226435;28;20685;-64
2022/07/07 13:37:29;;;;;;;7.17;6.60;;;22.20;99.90;;;;;;6222999;28;20233;-64
2022/07/07 13:40:32;;;;;;;7.50;6.90;;;22.20;99.90;;;;;;6244281;28;20671;-63
2022/07/07 13:43:39;;;;;;;7.37;6.87;;;22.20;99.90;;;;;;6218009;28;20239;-64
2022/07/07 13:46:42;;;;;;;6.10;5.70;;;22.30;99.90;;;;;;6226428;28;20555;-64
2022/07/07 13:49:46;;;;;;;6.63;6.23;;;22.30;99.90;;;;;;6226050;28;20231;-65
2022/07/07 13:52:50;;;;;;;7.33;6.60;;;22.40;99.90;;;;;;6210875;28;20204;-64
2022/07/07 13:55:53;;;;;;;5.43;5.03;;;22.60;99.90;;;;;;6211034;28;20202;-64
2022/07/07 13:58:58;;;;;;;6.33;5.93;;;22.70;99.90;;;;;;6225225;28;20692;-64
2022/07/07 14:02:01;;;;;;;5.10;4.80;;;22.80;99.90;;;;;;6221166;28;20202;-64
2022/07/07 14:05:05;;;;;;;5.90;5.50;;;22.90;99.90;;;;;;6216954;28;20208;-64
2022/07/07 14:08:08;;;;;;;5.67;5.17;;;23.10;99.90;;;;;;6210684;28;20778;-63
2022/07/07 14:11:12;;;;;;;5.50;5.10;;;23.30;99.90;;;;;;6219881;28;20240;-63
2022/07/07 14:14:17;;;;;;;6.77;5.90;;;23.50;99.90;;;;;;6241181;28;20243;-63
2022/07/07 14:17:20;;;;;;;6.40;5.80;;;23.70;99.90;;;;;;6215274;28;20778;-63
2022/07/07 14:20:23;;;;;;;6.67;5.60;;;23.80;99.90;;;;;;6218796;28;20240;-63
2022/07/07 14:23:26;;;;;;;6.53;6.03;;;24.00;99.90;;;;;;6214263;28;20239;-65
2022/07/07 14:26:30;;;;;;;7.03;6.33;;;24.10;99.90;;;;;;6215724;28;20567;-63
2022/07/07 14:29:34;;;;;;;6.20;5.70;;;24.10;99.90;;;;;;6231459;28;20238;-68
2022/07/07 14:32:38;;;;;;;7.20;6.70;;;24.10;99.90;;;;;;6218308;28;20226;-63
2022/07/07 14:35:41;;;;;;;6.50;6.10;;;24.10;99.90;;;;;;6215320;28;20251;-64
2022/07/07 14:38:44;;;;;;;6.27;5.80;;;24.00;99.90;;;;;;6219801;28;20236;-65
2022/07/07 14:41:47;;;;;;;4.97;4.67;;;23.80;99.90;;;;;;6214145;28;20364;-66
2022/07/07 14:44:52;;;;;;;5.47;4.97;;;23.30;99.90;;;;;;6223792;28;20303;-67
2022/07/07 14:47:55;;;;;;;5.67;5.13;;;23.20;99.90;;;;;;6225597;28;20229;-66
2022/07/07 14:50:59;;;;;;;6.27;5.60;;;23.10;99.90;;;;;;6209240;28;20229;-66
2022/07/07 14:54:03;;;;;;;6.10;5.70;;;23.00;99.90;;;;;;6225115;28;20227;-67
2022/07/07 14:57:07;;;;;;;5.97;5.47;;;23.00;99.90;;;;;;6222259;28;20227;-67
2022/07/07 15:00:12;;;;;;;5.30;4.90;;;22.90;99.90;;;;;;6225169;28;20252;-67
2022/07/07 15:03:16;;;;;;;5.83;5.33;;;22.80;99.90;;;;;;6215952;28;20366;-70
2022/07/07 15:06:19;;;;;;;6.60;6.00;;;22.80;99.90;;;;;;6215985;28;20247;-67
2022/07/07 15:09:22;;;;;;;5.53;5.07;;;22.70;99.90;;;;;;6226205;28;20229;-67
2022/07/07 15:12:26;;;;;;;5.27;4.97;;;22.60;99.90;;;;;;6217392;28;20574;-65
2022/07/07 15:15:30;;;;;;;6.13;5.63;;;22.60;99.90;;;;;;6213233;28;20266;-66
2022/07/07 15:18:34;;;;;;;5.93;5.53;;;22.50;99.90;;;;;;6208913;28;20221;-66
2022/07/07 15:21:37;;;;;;;6.23;5.83;;;22.40;99.90;;;;;;6228039;28;20224;-66
2022/07/07 15:24:40;;;;;;;6.83;6.33;;;22.40;99.90;;;;;;6225472;28;20221;-66
2022/07/07 15:27:43;;;;;;;6.03;5.63;;;22.30;99.90;;;;;;6214032;28;20221;-66
2022/07/07 15:30:48;;;;;;;6.63;6.10;;;22.20;99.90;;;;;;6207907;28;20669;-68
2022/07/07 15:33:51;;;;;;;5.53;5.13;;;22.20;99.90;;;;;;6211755;28;20222;-66
2022/07/07 15:36:54;;;;;;;5.97;5.57;;;22.10;99.90;;;;;;6220864;28;20231;-69
2022/07/07 15:39:57;;;;;;;6.00;5.60;;;22.10;99.90;;;;;;6242688;28;20545;-69
2022/07/07 15:43:01;;;;;;;7.10;6.60;;;22.00;99.90;;;;;;6224166;28;20651;-67
2022/07/07 15:46:05;;;;;;;6.43;6.03;;;21.90;99.90;;;;;;6209233;28;20237;-67
2022/07/07 15:49:09;;;;;;;6.60;6.10;;;21.90;99.90;;;;;;6224929;28;20239;-65
2022/07/07 15:52:12;;;;;;;6.67;6.17;;;21.80;99.90;;;;;;6232557;28;20233;-67
2022/07/07 15:55:15;;;;;;;6.17;5.77;;;21.60;99.90;;;;;;6225204;28;20226;-64
2022/07/07 15:58:19;;;;;;;6.70;6.20;;;21.60;99.90;;;;;;6220464;28;20312;-65
2022/07/07 16:01:24;;;;;;;6.70;6.30;;;21.50;99.90;;;;;;6214494;28;20225;-64